sensor_id;sensor_type;location;lat;lon;timestamp;P1;durP1;ratioP1;P2;durP2;ratioP2
58621;SDS011;44389;51.578;5.456;2022-12-18T00:01:24;166.55;;;38.35;;
58621;SDS011;44389;51.578;5.456;2022-12-18T00:03:51;164.63;;;42.20;;
58621;SDS011;44389;51.578;5.456;2022-12-18T00:06:18;309.48;;;116.88;;
58621;SDS011;44389;51.578;5.456;2022-12-18T00:08:45;126.30;;;33.92;;
58621;SDS011;44389;51.578;5.456;2022-12-18T00:11:16;132.88;;;32.38;;
58621;SDS011;44389;51.578;5.456;2022-12-18T00:13:43;154.65;;;34.03;;
58621;SDS011;44389;51.578;5.456;2022-12-18T00:16:10;305.48;;;116.57;;
58621;SDS011;44389;51.578;5.456;2022-12-18T00:18:36;143.43;;;35.78;;
58621;SDS011;44389;51.578;5.456;2022-12-18T00:21:03;150.88;;;37.47;;
58621;SDS011;44389;51.578;5.456;2022-12-18T00:23:30;304.58;;;118.90;;
58621;SDS011;44389;51.578;5.456;2022-12-18T00:25:59;152.88;;;35.50;;
58621;SDS011;44389;51.578;5.456;2022-12-18T00:28:26;164.55;;;39.30;;
58621;SDS011;44389;51.578;5.456;2022-12-18T00:30:59;149.25;;;35.28;;
58621;SDS011;44389;51.578;5.456;2022-12-18T00:33:36;143.98;;;35.42;;
58621;SDS011;44389;51.578;5.456;2022-12-18T00:36:06;257.23;;;103.70;;
58621;SDS011;44389;51.578;5.456;2022-12-18T00:38:37;272.38;;;106.82;;
58621;SDS011;44389;51.578;5.456;2022-12-18T00:41:03;133.50;;;36.25;;
58621;SDS011;44389;51.578;5.456;2022-12-18T00:43:28;276.08;;;109.20;;
58621;SDS011;44389;51.578;5.456;2022-12-18T00:45:54;124.10;;;32.90;;
58621;SDS011;44389;51.578;5.456;2022-12-18T00:48:20;267.33;;;107.80;;
58621;SDS011;44389;51.578;5.456;2022-12-18T00:50:46;269.05;;;109.00;;
58621;SDS011;44389;51.578;5.456;2022-12-18T00:53:13;134.43;;;34.63;;
58621;SDS011;44389;51.578;5.456;2022-12-18T00:55:39;142.32;;;34.47;;
58621;SDS011;44389;51.578;5.456;2022-12-18T00:58:04;252.80;;;103.07;;
58621;SDS011;44389;51.578;5.456;2022-12-18T01:00:30;125.25;;;32.53;;
58621;SDS011;44389;51.578;5.456;2022-12-18T01:02:55;248.95;;;103.45;;
58621;SDS011;44389;51.578;5.456;2022-12-18T01:05:21;126.35;;;32.13;;
58621;SDS011;44389;51.578;5.456;2022-12-18T01:07:46;128.98;;;32.65;;
58621;SDS011;44389;51.578;5.456;2022-12-18T01:10:12;129.27;;;31.42;;
58621;SDS011;44389;51.578;5.456;2022-12-18T01:12:38;141.48;;;35.55;;
58621;SDS011;44389;51.578;5.456;2022-12-18T01:15:05;228.30;;;97.10;;
58621;SDS011;44389;51.578;5.456;2022-12-18T01:17:31;223.95;;;98.05;;
58621;SDS011;44389;51.578;5.456;2022-12-18T01:19:57;111.22;;;30.98;;
58621;SDS011;44389;51.578;5.456;2022-12-18T01:22:22;215.77;;;95.22;;
58621;SDS011;44389;51.578;5.456;2022-12-18T01:24:48;109.35;;;31.60;;
58621;SDS011;44389;51.578;5.456;2022-12-18T01:27:13;102.38;;;29.92;;
58621;SDS011;44389;51.578;5.456;2022-12-18T01:29:39;113.80;;;33.78;;
58621;SDS011;44389;51.578;5.456;2022-12-18T01:32:04;115.70;;;31.13;;
58621;SDS011;44389;51.578;5.456;2022-12-18T01:34:29;206.85;;;92.53;;
58621;SDS011;44389;51.578;5.456;2022-12-18T01:36:54;208.20;;;94.93;;
58621;SDS011;44389;51.578;5.456;2022-12-18T01:39:20;110.68;;;31.80;;
58621;SDS011;44389;51.578;5.456;2022-12-18T01:41:45;116.63;;;31.88;;
58621;SDS011;44389;51.578;5.456;2022-12-18T01:47:24;106.35;;;29.23;;
58621;SDS011;44389;51.578;5.456;2022-12-18T01:49:56;103.95;;;30.77;;
58621;SDS011;44389;51.578;5.456;2022-12-18T01:54:50;110.05;;;29.48;;
58621;SDS011;44389;51.578;5.456;2022-12-18T01:57:16;186.07;;;89.32;;
58621;SDS011;44389;51.578;5.456;2022-12-18T01:59:42;182.07;;;86.93;;
58621;SDS011;44389;51.578;5.456;2022-12-18T02:02:10;181.02;;;90.57;;
58621;SDS011;44389;51.578;5.456;2022-12-18T02:04:36;195.15;;;88.28;;
58621;SDS011;44389;51.578;5.456;2022-12-18T02:09:50;83.35;;;26.85;;
58621;SDS011;44389;51.578;5.456;2022-12-18T02:18:29;99.20;;;29.23;;
58621;SDS011;44389;51.578;5.456;2022-12-18T02:21:01;103.85;;;31.20;;
58621;SDS011;44389;51.578;5.456;2022-12-18T02:23:40;97.60;;;28.40;;
58621;SDS011;44389;51.578;5.456;2022-12-18T02:26:29;173.25;;;83.00;;
58621;SDS011;44389;51.578;5.456;2022-12-18T02:32:05;114.20;;;32.38;;
58621;SDS011;44389;51.578;5.456;2022-12-18T02:34:37;97.78;;;29.25;;
58621;SDS011;44389;51.578;5.456;2022-12-18T02:37:04;90.47;;;28.20;;
58621;SDS011;44389;51.578;5.456;2022-12-18T02:39:36;83.35;;;27.38;;
58621;SDS011;44389;51.578;5.456;2022-12-18T02:42:03;91.78;;;27.98;;
58621;SDS011;44389;51.578;5.456;2022-12-18T02:44:32;166.05;;;80.20;;
58621;SDS011;44389;51.578;5.456;2022-12-18T02:47:09;88.20;;;29.33;;
58621;SDS011;44389;51.578;5.456;2022-12-18T02:49:49;99.95;;;26.05;;
58621;SDS011;44389;51.578;5.456;2022-12-18T03:01:25;156.13;;;74.32;;
58621;SDS011;44389;51.578;5.456;2022-12-18T03:04:00;77.13;;;25.50;;
58621;SDS011;44389;51.578;5.456;2022-12-18T03:06:40;147.43;;;75.28;;
58621;SDS011;44389;51.578;5.456;2022-12-18T03:09:14;76.97;;;27.08;;
58621;SDS011;44389;51.578;5.456;2022-12-18T03:11:44;90.13;;;27.35;;
58621;SDS011;44389;51.578;5.456;2022-12-18T03:14:33;151.82;;;77.60;;
58621;SDS011;44389;51.578;5.456;2022-12-18T03:17:03;75.80;;;26.08;;
58621;SDS011;44389;51.578;5.456;2022-12-18T03:19:31;89.25;;;26.73;;
58621;SDS011;44389;51.578;5.456;2022-12-18T03:21:58;71.85;;;25.98;;
58621;SDS011;44389;51.578;5.456;2022-12-18T03:24:27;85.18;;;26.92;;
58621;SDS011;44389;51.578;5.456;2022-12-18T03:26:55;76.03;;;25.13;;
58621;SDS011;44389;51.578;5.456;2022-12-18T03:29:27;71.20;;;24.60;;
58621;SDS011;44389;51.578;5.456;2022-12-18T03:32:14;76.38;;;24.88;;
58621;SDS011;44389;51.578;5.456;2022-12-18T03:34:45;80.50;;;24.50;;
58621;SDS011;44389;51.578;5.456;2022-12-18T03:37:14;77.90;;;25.67;;
58621;SDS011;44389;51.578;5.456;2022-12-18T03:39:39;122.70;;;64.03;;
58621;SDS011;44389;51.578;5.456;2022-12-18T03:42:06;129.23;;;66.65;;
58621;SDS011;44389;51.578;5.456;2022-12-18T03:44:54;127.95;;;65.10;;
58621;SDS011;44389;51.578;5.456;2022-12-18T03:50:21;74.93;;;23.92;;
58621;SDS011;44389;51.578;5.456;2022-12-18T03:52:54;119.68;;;63.28;;
58621;SDS011;44389;51.578;5.456;2022-12-18T03:55:25;128.77;;;64.35;;
58621;SDS011;44389;51.578;5.456;2022-12-18T03:57:54;76.47;;;25.27;;
58621;SDS011;44389;51.578;5.456;2022-12-18T04:00:21;64.85;;;22.52;;
58621;SDS011;44389;51.578;5.456;2022-12-18T04:02:54;63.40;;;21.45;;
58621;SDS011;44389;51.578;5.456;2022-12-18T04:05:21;58.55;;;20.52;;
58621;SDS011;44389;51.578;5.456;2022-12-18T04:07:49;58.63;;;20.63;;
58621;SDS011;44389;51.578;5.456;2022-12-18T04:10:16;77.97;;;24.05;;
58621;SDS011;44389;51.578;5.456;2022-12-18T04:12:41;107.32;;;58.42;;
58621;SDS011;44389;51.578;5.456;2022-12-18T04:15:07;109.32;;;58.03;;
58621;SDS011;44389;51.578;5.456;2022-12-18T04:17:34;55.28;;;19.45;;
58621;SDS011;44389;51.578;5.456;2022-12-18T04:19:59;55.13;;;20.73;;
58621;SDS011;44389;51.578;5.456;2022-12-18T04:22:24;63.85;;;20.55;;
58621;SDS011;44389;51.578;5.456;2022-12-18T04:24:49;59.25;;;20.83;;
58621;SDS011;44389;51.578;5.456;2022-12-18T04:27:15;60.50;;;22.40;;
58621;SDS011;44389;51.578;5.456;2022-12-18T04:29:40;64.53;;;21.33;;
58621;SDS011;44389;51.578;5.456;2022-12-18T04:32:06;93.90;;;52.88;;
58621;SDS011;44389;51.578;5.456;2022-12-18T04:34:32;64.22;;;22.83;;
58621;SDS011;44389;51.578;5.456;2022-12-18T04:36:57;65.90;;;20.88;;
58621;SDS011;44389;51.578;5.456;2022-12-18T04:39:22;95.53;;;51.90;;
58621;SDS011;44389;51.578;5.456;2022-12-18T04:41:48;50.80;;;17.73;;
58621;SDS011;44389;51.578;5.456;2022-12-18T04:44:13;61.80;;;19.65;;
58621;SDS011;44389;51.578;5.456;2022-12-18T04:46:38;52.63;;;20.00;;
58621;SDS011;44389;51.578;5.456;2022-12-18T04:49:04;91.15;;;51.45;;
58621;SDS011;44389;51.578;5.456;2022-12-18T04:51:29;93.38;;;52.72;;
58621;SDS011;44389;51.578;5.456;2022-12-18T04:53:54;51.80;;;19.52;;
58621;SDS011;44389;51.578;5.456;2022-12-18T04:56:20;51.90;;;18.65;;
58621;SDS011;44389;51.578;5.456;2022-12-18T04:58:45;87.57;;;49.72;;
58621;SDS011;44389;51.578;5.456;2022-12-18T05:01:12;89.35;;;50.20;;
58621;SDS011;44389;51.578;5.456;2022-12-18T05:03:39;50.15;;;17.52;;
58621;SDS011;44389;51.578;5.456;2022-12-18T05:06:04;80.22;;;48.85;;
58621;SDS011;44389;51.578;5.456;2022-12-18T05:08:30;50.70;;;17.35;;
58621;SDS011;44389;51.578;5.456;2022-12-18T05:11:00;49.90;;;18.85;;
58621;SDS011;44389;51.578;5.456;2022-12-18T05:13:30;61.55;;;19.27;;
58621;SDS011;44389;51.578;5.456;2022-12-18T05:15:56;49.35;;;18.65;;
58621;SDS011;44389;51.578;5.456;2022-12-18T05:18:22;85.63;;;48.83;;
58621;SDS011;44389;51.578;5.456;2022-12-18T05:20:49;83.15;;;48.53;;
58621;SDS011;44389;51.578;5.456;2022-12-18T05:23:15;48.70;;;17.80;;
58621;SDS011;44389;51.578;5.456;2022-12-18T05:25:40;74.00;;;45.97;;
58621;SDS011;44389;51.578;5.456;2022-12-18T05:28:05;43.03;;;16.23;;
58621;SDS011;44389;51.578;5.456;2022-12-18T05:30:33;80.00;;;48.05;;
58621;SDS011;44389;51.578;5.456;2022-12-18T05:32:59;42.67;;;16.60;;
58621;SDS011;44389;51.578;5.456;2022-12-18T05:35:24;51.95;;;18.90;;
58621;SDS011;44389;51.578;5.456;2022-12-18T05:37:49;48.67;;;17.10;;
58621;SDS011;44389;51.578;5.456;2022-12-18T05:40:15;42.80;;;15.05;;
58621;SDS011;44389;51.578;5.456;2022-12-18T05:42:40;71.57;;;43.22;;
58621;SDS011;44389;51.578;5.456;2022-12-18T05:45:05;41.63;;;15.77;;
58621;SDS011;44389;51.578;5.456;2022-12-18T05:47:31;47.78;;;15.52;;
58621;SDS011;44389;51.578;5.456;2022-12-18T05:49:56;47.45;;;17.65;;
58621;SDS011;44389;51.578;5.456;2022-12-18T05:52:22;75.93;;;44.92;;
58621;SDS011;44389;51.578;5.456;2022-12-18T05:54:47;56.83;;;19.05;;
58621;SDS011;44389;51.578;5.456;2022-12-18T05:57:13;41.28;;;15.82;;
58621;SDS011;44389;51.578;5.456;2022-12-18T05:59:38;76.28;;;44.80;;
58621;SDS011;44389;51.578;5.456;2022-12-18T06:02:03;42.75;;;16.02;;
58621;SDS011;44389;51.578;5.456;2022-12-18T06:04:29;49.60;;;15.45;;
58621;SDS011;44389;51.578;5.456;2022-12-18T06:06:54;77.32;;;46.92;;
58621;SDS011;44389;51.578;5.456;2022-12-18T06:09:19;44.45;;;16.52;;
58621;SDS011;44389;51.578;5.456;2022-12-18T06:11:45;44.65;;;17.25;;
58621;SDS011;44389;51.578;5.456;2022-12-18T06:14:10;48.40;;;18.55;;
58621;SDS011;44389;51.578;5.456;2022-12-18T06:16:35;48.03;;;17.27;;
58621;SDS011;44389;51.578;5.456;2022-12-18T06:19:01;75.53;;;47.33;;
58621;SDS011;44389;51.578;5.456;2022-12-18T06:21:29;74.35;;;45.70;;
58621;SDS011;44389;51.578;5.456;2022-12-18T06:23:55;44.28;;;17.73;;
58621;SDS011;44389;51.578;5.456;2022-12-18T06:26:21;47.67;;;17.25;;
58621;SDS011;44389;51.578;5.456;2022-12-18T06:28:46;46.78;;;17.98;;
58621;SDS011;44389;51.578;5.456;2022-12-18T06:31:12;69.88;;;43.10;;
58621;SDS011;44389;51.578;5.456;2022-12-18T06:33:37;73.55;;;44.50;;
58621;SDS011;44389;51.578;5.456;2022-12-18T06:36:07;40.75;;;16.85;;
58621;SDS011;44389;51.578;5.456;2022-12-18T06:38:34;69.25;;;43.15;;
58621;SDS011;44389;51.578;5.456;2022-12-18T06:41:05;71.78;;;43.85;;
58621;SDS011;44389;51.578;5.456;2022-12-18T06:43:34;37.28;;;15.40;;
58621;SDS011;44389;51.578;5.456;2022-12-18T06:46:00;70.00;;;43.45;;
58621;SDS011;44389;51.578;5.456;2022-12-18T06:48:25;44.53;;;15.07;;
58621;SDS011;44389;51.578;5.456;2022-12-18T06:50:51;41.10;;;17.10;;
58621;SDS011;44389;51.578;5.456;2022-12-18T06:53:16;73.47;;;45.40;;
58621;SDS011;44389;51.578;5.456;2022-12-18T06:55:41;40.28;;;16.48;;
58621;SDS011;44389;51.578;5.456;2022-12-18T06:58:07;50.05;;;16.60;;
58621;SDS011;44389;51.578;5.456;2022-12-18T07:00:32;46.67;;;16.23;;
58621;SDS011;44389;51.578;5.456;2022-12-18T07:02:58;41.53;;;16.58;;
58621;SDS011;44389;51.578;5.456;2022-12-18T07:05:23;47.53;;;18.38;;
58621;SDS011;44389;51.578;5.456;2022-12-18T07:07:48;49.03;;;19.35;;
58621;SDS011;44389;51.578;5.456;2022-12-18T07:10:13;50.88;;;17.88;;
58621;SDS011;44389;51.578;5.456;2022-12-18T07:12:39;80.10;;;50.38;;
58621;SDS011;44389;51.578;5.456;2022-12-18T07:15:04;45.58;;;18.27;;
58621;SDS011;44389;51.578;5.456;2022-12-18T07:17:30;51.63;;;17.83;;
58621;SDS011;44389;51.578;5.456;2022-12-18T07:19:55;50.00;;;18.52;;
58621;SDS011;44389;51.578;5.456;2022-12-18T07:22:21;48.60;;;18.92;;
58621;SDS011;44389;51.578;5.456;2022-12-18T07:24:46;74.70;;;46.33;;
58621;SDS011;44389;51.578;5.456;2022-12-18T07:27:12;52.88;;;19.70;;
58621;SDS011;44389;51.578;5.456;2022-12-18T07:29:37;76.45;;;48.65;;
58621;SDS011;44389;51.578;5.456;2022-12-18T07:32:02;41.67;;;17.55;;
58621;SDS011;44389;51.578;5.456;2022-12-18T07:34:28;78.38;;;48.47;;
58621;SDS011;44389;51.578;5.456;2022-12-18T07:36:53;45.60;;;18.63;;
58621;SDS011;44389;51.578;5.456;2022-12-18T07:39:18;38.10;;;18.20;;
58621;SDS011;44389;51.578;5.456;2022-12-18T07:41:43;78.53;;;49.88;;
58621;SDS011;44389;51.578;5.456;2022-12-18T07:44:29;48.53;;;17.55;;
58621;SDS011;44389;51.578;5.456;2022-12-18T07:46:54;53.03;;;19.52;;
58621;SDS011;44389;51.578;5.456;2022-12-18T07:49:19;78.15;;;50.00;;
58621;SDS011;44389;51.578;5.456;2022-12-18T07:51:44;40.70;;;18.27;;
58621;SDS011;44389;51.578;5.456;2022-12-18T07:54:13;81.07;;;49.05;;
58621;SDS011;44389;51.578;5.456;2022-12-18T07:56:39;46.05;;;16.83;;
58621;SDS011;44389;51.578;5.456;2022-12-18T07:59:04;82.82;;;50.72;;
58621;SDS011;44389;51.578;5.456;2022-12-18T08:01:29;55.38;;;18.90;;
58621;SDS011;44389;51.578;5.456;2022-12-18T08:03:55;47.42;;;17.98;;
58621;SDS011;44389;51.578;5.456;2022-12-18T08:06:20;53.05;;;19.75;;
58621;SDS011;44389;51.578;5.456;2022-12-18T08:08:46;54.40;;;19.60;;
58621;SDS011;44389;51.578;5.456;2022-12-18T08:11:11;47.30;;;19.13;;
58621;SDS011;44389;51.578;5.456;2022-12-18T08:13:36;56.55;;;20.42;;
58621;SDS011;44389;51.578;5.456;2022-12-18T08:16:03;93.55;;;59.25;;
58621;SDS011;44389;51.578;5.456;2022-12-18T08:18:31;76.60;;;49.15;;
58621;SDS011;44389;51.578;5.456;2022-12-18T08:20:57;47.60;;;18.58;;
58621;SDS011;44389;51.578;5.456;2022-12-18T08:23:22;48.03;;;19.70;;
58621;SDS011;44389;51.578;5.456;2022-12-18T08:25:48;60.88;;;24.02;;
58621;SDS011;44389;51.578;5.456;2022-12-18T08:28:13;61.45;;;21.25;;
58621;SDS011;44389;51.578;5.456;2022-12-18T08:30:39;78.28;;;48.78;;
58621;SDS011;44389;51.578;5.456;2022-12-18T08:33:04;81.55;;;48.13;;
58621;SDS011;44389;51.578;5.456;2022-12-18T08:35:29;83.93;;;51.72;;
58621;SDS011;44389;51.578;5.456;2022-12-18T08:37:55;50.08;;;18.92;;
58621;SDS011;44389;51.578;5.456;2022-12-18T08:40:20;57.35;;;21.02;;
58621;SDS011;44389;51.578;5.456;2022-12-18T08:42:45;49.58;;;17.33;;
58621;SDS011;44389;51.578;5.456;2022-12-18T08:45:29;48.22;;;18.20;;
58621;SDS011;44389;51.578;5.456;2022-12-18T08:47:55;84.47;;;49.78;;
58621;SDS011;44389;51.578;5.456;2022-12-18T08:50:20;51.75;;;21.52;;
58621;SDS011;44389;51.578;5.456;2022-12-18T08:52:45;79.85;;;49.67;;
58621;SDS011;44389;51.578;5.456;2022-12-18T08:55:10;79.05;;;48.63;;
58621;SDS011;44389;51.578;5.456;2022-12-18T08:57:36;49.65;;;19.23;;
58621;SDS011;44389;51.578;5.456;2022-12-18T09:00:01;50.20;;;19.27;;
58621;SDS011;44389;51.578;5.456;2022-12-18T09:02:27;82.22;;;50.15;;
58621;SDS011;44389;51.578;5.456;2022-12-18T09:04:53;45.38;;;17.88;;
58621;SDS011;44389;51.578;5.456;2022-12-18T09:07:18;53.15;;;21.83;;
58621;SDS011;44389;51.578;5.456;2022-12-18T09:09:43;77.40;;;46.47;;
58621;SDS011;44389;51.578;5.456;2022-12-18T09:12:09;76.03;;;48.10;;
58621;SDS011;44389;51.578;5.456;2022-12-18T09:14:34;63.55;;;20.38;;
58621;SDS011;44389;51.578;5.456;2022-12-18T09:17:00;81.75;;;49.55;;
58621;SDS011;44389;51.578;5.456;2022-12-18T09:19:25;50.90;;;20.02;;
58621;SDS011;44389;51.578;5.456;2022-12-18T09:21:50;68.90;;;20.52;;
58621;SDS011;44389;51.578;5.456;2022-12-18T09:24:16;77.10;;;49.45;;
58621;SDS011;44389;51.578;5.456;2022-12-18T09:26:41;49.65;;;19.55;;
58621;SDS011;44389;51.578;5.456;2022-12-18T09:29:07;77.28;;;47.10;;
58621;SDS011;44389;51.578;5.456;2022-12-18T09:31:34;164.38;;;50.00;;
58621;SDS011;44389;51.578;5.456;2022-12-18T09:34:00;77.20;;;45.40;;
58621;SDS011;44389;51.578;5.456;2022-12-18T09:36:25;79.53;;;47.35;;
58621;SDS011;44389;51.578;5.456;2022-12-18T09:38:50;78.53;;;47.35;;
58621;SDS011;44389;51.578;5.456;2022-12-18T09:44:11;63.80;;;20.48;;
58621;SDS011;44389;51.578;5.456;2022-12-18T09:46:44;52.10;;;19.30;;
58621;SDS011;44389;51.578;5.456;2022-12-18T09:49:13;78.43;;;47.20;;
58621;SDS011;44389;51.578;5.456;2022-12-18T09:52:03;79.55;;;47.45;;
58621;SDS011;44389;51.578;5.456;2022-12-18T09:57:25;83.90;;;50.80;;
58621;SDS011;44389;51.578;5.456;2022-12-18T09:59:58;77.80;;;46.78;;
58621;SDS011;44389;51.578;5.456;2022-12-18T10:02:32;82.80;;;47.88;;
58621;SDS011;44389;51.578;5.456;2022-12-18T10:18:23;81.50;;;46.67;;
58621;SDS011;44389;51.578;5.456;2022-12-18T10:21:05;90.60;;;52.08;;
58621;SDS011;44389;51.578;5.456;2022-12-18T10:23:48;87.07;;;49.88;;
58621;SDS011;44389;51.578;5.456;2022-12-18T10:26:17;85.72;;;50.22;;
58621;SDS011;44389;51.578;5.456;2022-12-18T10:28:43;57.42;;;17.90;;
58621;SDS011;44389;51.578;5.456;2022-12-18T10:31:14;67.43;;;25.13;;
58621;SDS011;44389;51.578;5.456;2022-12-18T10:33:45;56.70;;;20.27;;
58621;SDS011;44389;51.578;5.456;2022-12-18T10:36:10;84.28;;;47.50;;
58621;SDS011;44389;51.578;5.456;2022-12-18T10:38:36;66.38;;;24.05;;
58621;SDS011;44389;51.578;5.456;2022-12-18T10:41:03;88.68;;;51.95;;
58621;SDS011;44389;51.578;5.456;2022-12-18T10:43:30;82.80;;;47.03;;
58621;SDS011;44389;51.578;5.456;2022-12-18T10:48:54;84.20;;;48.13;;
58621;SDS011;44389;51.578;5.456;2022-12-18T10:51:24;84.28;;;49.25;;
58621;SDS011;44389;51.578;5.456;2022-12-18T10:54:05;82.82;;;50.53;;
58621;SDS011;44389;51.578;5.456;2022-12-18T10:56:38;58.27;;;19.30;;
58621;SDS011;44389;51.578;5.456;2022-12-18T10:59:05;84.72;;;50.00;;
58621;SDS011;44389;51.578;5.456;2022-12-18T11:01:54;87.65;;;48.92;;
58621;SDS011;44389;51.578;5.456;2022-12-18T11:04:23;88.93;;;50.28;;
58621;SDS011;44389;51.578;5.456;2022-12-18T11:07:00;86.20;;;50.00;;
58621;SDS011;44389;51.578;5.456;2022-12-18T11:09:31;87.90;;;50.85;;
58621;SDS011;44389;51.578;5.456;2022-12-18T11:12:02;88.03;;;50.70;;
58621;SDS011;44389;51.578;5.456;2022-12-18T11:14:44;68.03;;;23.80;;
58621;SDS011;44389;51.578;5.456;2022-12-18T11:17:29;89.85;;;50.22;;
58621;SDS011;44389;51.578;5.456;2022-12-18T11:19:57;62.42;;;22.55;;
58621;SDS011;44389;51.578;5.456;2022-12-18T11:27:49;59.17;;;19.83;;
58621;SDS011;44389;51.578;5.456;2022-12-18T11:32:45;88.10;;;50.42;;
58621;SDS011;44389;51.578;5.456;2022-12-18T11:38:05;73.80;;;24.08;;
58621;SDS011;44389;51.578;5.456;2022-12-18T11:40:38;65.57;;;23.65;;
58621;SDS011;44389;51.578;5.456;2022-12-18T11:43:14;76.00;;;24.40;;
58621;SDS011;44389;51.578;5.456;2022-12-18T11:45:51;87.05;;;47.83;;
58621;SDS011;44389;51.578;5.456;2022-12-18T11:48:23;59.20;;;22.55;;
58621;SDS011;44389;51.578;5.456;2022-12-18T11:51:09;85.72;;;49.50;;
58621;SDS011;44389;51.578;5.456;2022-12-18T11:53:39;93.03;;;51.22;;
58621;SDS011;44389;51.578;5.456;2022-12-18T11:56:25;67.35;;;23.25;;
58621;SDS011;44389;51.578;5.456;2022-12-18T12:01:52;70.05;;;24.23;;
58621;SDS011;44389;51.578;5.456;2022-12-18T12:07:06;55.00;;;22.42;;
58621;SDS011;44389;51.578;5.456;2022-12-18T12:14:59;91.97;;;50.75;;
58621;SDS011;44389;51.578;5.456;2022-12-18T12:26:07;91.35;;;49.00;;
58621;SDS011;44389;51.578;5.456;2022-12-18T12:31:30;73.97;;;23.95;;
58621;SDS011;44389;51.578;5.456;2022-12-18T12:34:41;87.70;;;48.35;;
58621;SDS011;44389;51.578;5.456;2022-12-18T12:37:25;69.93;;;24.52;;
58621;SDS011;44389;51.578;5.456;2022-12-18T12:40:17;87.18;;;48.40;;
58621;SDS011;44389;51.578;5.456;2022-12-18T12:43:38;89.88;;;48.85;;
58621;SDS011;44389;51.578;5.456;2022-12-18T12:46:10;89.50;;;48.08;;
58621;SDS011;44389;51.578;5.456;2022-12-18T12:53:49;87.93;;;49.30;;
58621;SDS011;44389;51.578;5.456;2022-12-18T12:56:15;89.47;;;49.92;;
58621;SDS011;44389;51.578;5.456;2022-12-18T12:58:55;60.17;;;24.17;;
58621;SDS011;44389;51.578;5.456;2022-12-18T13:04:03;83.88;;;48.10;;
58621;SDS011;44389;51.578;5.456;2022-12-18T13:12:51;62.78;;;21.05;;
58621;SDS011;44389;51.578;5.456;2022-12-18T13:15:21;67.40;;;22.85;;
58621;SDS011;44389;51.578;5.456;2022-12-18T13:17:47;80.18;;;47.25;;
58621;SDS011;44389;51.578;5.456;2022-12-18T13:20:13;88.32;;;50.35;;
58621;SDS011;44389;51.578;5.456;2022-12-18T13:25:27;61.05;;;19.48;;
58621;SDS011;44389;51.578;5.456;2022-12-18T13:28:03;88.78;;;48.95;;
58621;SDS011;44389;51.578;5.456;2022-12-18T13:30:41;80.70;;;47.97;;
58621;SDS011;44389;51.578;5.456;2022-12-18T13:35:40;80.07;;;47.45;;
58621;SDS011;44389;51.578;5.456;2022-12-18T13:38:20;81.78;;;45.60;;
58621;SDS011;44389;51.578;5.456;2022-12-18T13:45:44;82.07;;;47.42;;
58621;SDS011;44389;51.578;5.456;2022-12-18T13:48:22;83.22;;;48.47;;
58621;SDS011;44389;51.578;5.456;2022-12-18T13:50:55;85.75;;;47.30;;
58621;SDS011;44389;51.578;5.456;2022-12-18T13:53:28;81.55;;;47.15;;
58621;SDS011;44389;51.578;5.456;2022-12-18T13:55:57;80.30;;;45.88;;
58621;SDS011;44389;51.578;5.456;2022-12-18T13:58:23;59.17;;;22.45;;
58621;SDS011;44389;51.578;5.456;2022-12-18T14:00:48;81.00;;;46.20;;
58621;SDS011;44389;51.578;5.456;2022-12-18T14:03:24;74.18;;;44.58;;
58621;SDS011;44389;51.578;5.456;2022-12-18T14:06:01;77.88;;;45.30;;
58621;SDS011;44389;51.578;5.456;2022-12-18T14:08:35;76.17;;;45.20;;
58621;SDS011;44389;51.578;5.456;2022-12-18T14:11:05;79.18;;;46.05;;
58621;SDS011;44389;51.578;5.456;2022-12-18T14:13:41;79.20;;;46.33;;
58621;SDS011;44389;51.578;5.456;2022-12-18T14:16:07;54.17;;;20.00;;
58621;SDS011;44389;51.578;5.456;2022-12-18T14:18:38;73.53;;;44.55;;
58621;SDS011;44389;51.578;5.456;2022-12-18T14:21:15;81.95;;;47.30;;
58621;SDS011;44389;51.578;5.456;2022-12-18T14:23:44;76.88;;;47.10;;
58621;SDS011;44389;51.578;5.456;2022-12-18T14:26:26;78.43;;;45.97;;
58621;SDS011;44389;51.578;5.456;2022-12-18T14:28:57;76.97;;;44.78;;
58621;SDS011;44389;51.578;5.456;2022-12-18T14:31:27;75.68;;;46.50;;
58621;SDS011;44389;51.578;5.456;2022-12-18T14:33:54;79.10;;;46.08;;
58621;SDS011;44389;51.578;5.456;2022-12-18T14:36:21;79.80;;;46.97;;
58621;SDS011;44389;51.578;5.456;2022-12-18T14:38:52;75.80;;;44.92;;
58621;SDS011;44389;51.578;5.456;2022-12-18T14:41:19;59.80;;;22.10;;
58621;SDS011;44389;51.578;5.456;2022-12-18T14:43:47;78.45;;;45.33;;
58621;SDS011;44389;51.578;5.456;2022-12-18T14:48:57;75.70;;;45.75;;
58621;SDS011;44389;51.578;5.456;2022-12-18T14:51:26;73.72;;;45.65;;
58621;SDS011;44389;51.578;5.456;2022-12-18T14:53:55;77.20;;;45.60;;
58621;SDS011;44389;51.578;5.456;2022-12-18T14:58:56;74.10;;;45.22;;
58621;SDS011;44389;51.578;5.456;2022-12-18T15:01:37;77.18;;;46.33;;
58621;SDS011;44389;51.578;5.456;2022-12-18T15:07:38;76.63;;;45.63;;
58621;SDS011;44389;51.578;5.456;2022-12-18T15:12:34;74.82;;;45.72;;
58621;SDS011;44389;51.578;5.456;2022-12-18T15:15:00;71.60;;;44.22;;
58621;SDS011;44389;51.578;5.456;2022-12-18T15:17:26;74.68;;;45.33;;
58621;SDS011;44389;51.578;5.456;2022-12-18T15:19:52;73.28;;;43.25;;
58621;SDS011;44389;51.578;5.456;2022-12-18T15:22:27;46.78;;;17.58;;
58621;SDS011;44389;51.578;5.456;2022-12-18T15:24:59;75.13;;;43.63;;
58621;SDS011;44389;51.578;5.456;2022-12-18T15:27:26;80.10;;;45.55;;
58621;SDS011;44389;51.578;5.456;2022-12-18T15:32:36;74.05;;;44.40;;
58621;SDS011;44389;51.578;5.456;2022-12-18T15:35:03;57.33;;;21.90;;
58621;SDS011;44389;51.578;5.456;2022-12-18T15:37:35;77.28;;;44.20;;
58621;SDS011;44389;51.578;5.456;2022-12-18T15:40:05;74.75;;;44.40;;
58621;SDS011;44389;51.578;5.456;2022-12-18T15:42:31;69.80;;;42.25;;
58621;SDS011;44389;51.578;5.456;2022-12-18T15:45:15;78.22;;;45.13;;
58621;SDS011;44389;51.578;5.456;2022-12-18T15:47:41;78.03;;;45.30;;
58621;SDS011;44389;51.578;5.456;2022-12-18T15:50:09;78.90;;;46.53;;
58621;SDS011;44389;51.578;5.456;2022-12-18T15:52:42;85.70;;;49.38;;
58621;SDS011;44389;51.578;5.456;2022-12-18T15:55:12;77.45;;;46.80;;
58621;SDS011;44389;51.578;5.456;2022-12-18T15:58:14;73.68;;;45.55;;
58621;SDS011;44389;51.578;5.456;2022-12-18T16:00:40;72.13;;;44.83;;
58621;SDS011;44389;51.578;5.456;2022-12-18T16:03:05;76.15;;;43.55;;
58621;SDS011;44389;51.578;5.456;2022-12-18T16:05:31;71.80;;;44.22;;
58621;SDS011;44389;51.578;5.456;2022-12-18T16:07:56;71.47;;;44.20;;
58621;SDS011;44389;51.578;5.456;2022-12-18T16:10:23;52.17;;;19.25;;
58621;SDS011;44389;51.578;5.456;2022-12-18T16:12:49;70.68;;;42.47;;
58621;SDS011;44389;51.578;5.456;2022-12-18T16:15:15;69.07;;;43.35;;
58621;SDS011;44389;51.578;5.456;2022-12-18T16:17:41;78.53;;;44.42;;
58621;SDS011;44389;51.578;5.456;2022-12-18T16:20:11;83.07;;;45.97;;
58621;SDS011;44389;51.578;5.456;2022-12-18T16:22:39;66.13;;;42.08;;
58621;SDS011;44389;51.578;5.456;2022-12-18T16:25:05;70.88;;;44.03;;
58621;SDS011;44389;51.578;5.456;2022-12-18T16:27:34;71.80;;;43.80;;
58621;SDS011;44389;51.578;5.456;2022-12-18T16:29:59;71.78;;;42.30;;
58621;SDS011;44389;51.578;5.456;2022-12-18T16:32:24;70.93;;;43.83;;